createdAt,value
2019-05-23T00:01:54.520Z,101293.64
2019-05-23T00:04:56.368Z,101288.32
2019-05-23T00:07:51.161Z,101289.45
2019-05-23T00:11:06.264Z,101285.70
2019-05-23T00:13:50.275Z,101294.74
2019-05-23T00:16:28.981Z,101292.30
2019-05-23T00:19:04.397Z,101295.45
2019-05-23T00:21:39.840Z,101288.64
2019-05-23T00:24:17.407Z,101298.97
2019-05-23T00:26:52.946Z,101288.25
2019-05-23T00:29:29.088Z,101293.97
2019-05-23T00:32:18.230Z,101296.02
2019-05-23T00:34:54.829Z,101295.70
2019-05-23T00:37:30.431Z,101295.45
2019-05-23T00:40:11.324Z,101291.88
2019-05-23T00:42:46.796Z,101284.03
2019-05-23T00:45:22.874Z,101291.66
2019-05-23T00:47:58.203Z,101297.45
2019-05-23T00:50:33.314Z,101295.77
2019-05-23T00:53:09.330Z,101294.96
2019-05-23T00:55:47.133Z,101295.77
2019-05-23T00:58:23.525Z,101298.61
2019-05-23T01:00:59.919Z,101306.77
2019-05-23T01:03:35.821Z,101301.87
2019-05-23T01:06:14.638Z,101305.11
2019-05-23T01:08:50.443Z,101309.15
2019-05-23T01:11:27.193Z,101311.63
2019-05-23T01:14:02.632Z,101307.73
2019-05-23T01:16:39.989Z,101309.71
2019-05-23T01:19:16.351Z,101316.13
2019-05-23T01:21:56.523Z,101317.41
2019-05-23T01:24:41.025Z,101320.03
2019-05-23T01:27:18.861Z,101315.66
2019-05-23T01:29:56.139Z,101323.50
2019-05-23T01:32:36.540Z,101318.17
2019-05-23T01:35:13.698Z,101321.34
2019-05-23T01:37:51.555Z,101322.16
2019-05-23T01:40:29.131Z,101321.58
2019-05-23T01:43:04.709Z,101326.78
2019-05-23T01:45:41.130Z,101326.88
2019-05-23T01:48:17.325Z,101318.30
2019-05-23T01:50:52.912Z,101321.56
2019-05-23T01:53:29.783Z,101332.66
2019-05-23T01:56:06.127Z,101325.28
2019-05-23T01:58:41.943Z,101333.99
2019-05-23T02:01:17.347Z,101333.17
2019-05-23T02:03:52.956Z,101332.78
2019-05-23T02:06:29.220Z,101339.13
2019-05-23T02:09:09.558Z,101346.88
2019-05-23T02:11:45.498Z,101342.02
2019-05-23T02:14:21.492Z,101335.71
2019-05-23T02:16:58.462Z,101343.47
2019-05-23T02:19:34.812Z,101345.51
2019-05-23T02:22:10.594Z,101346.20
2019-05-23T02:24:47.069Z,101350.44
2019-05-23T02:27:23.429Z,101349.84
2019-05-23T02:30:00.555Z,101345.16
2019-05-23T02:32:35.955Z,101347.68
2019-05-23T02:35:12.016Z,101345.67
2019-05-23T02:37:52.955Z,101344.00
2019-05-23T02:40:36.005Z,101340.15
2019-05-23T02:43:28.980Z,101343.20
2019-05-23T02:46:16.733Z,101349.23
2019-05-23T02:48:53.712Z,101345.34
2019-05-23T02:51:34.104Z,101347.22
2019-05-23T02:54:12.287Z,101346.77
2019-05-23T02:56:47.980Z,101349.18
2019-05-23T02:59:42.088Z,101347.84
2019-05-23T03:02:40.110Z,101333.84
2019-05-23T03:05:18.124Z,101333.84
2019-05-23T03:07:53.535Z,101345.77
2019-05-23T03:10:33.447Z,101344.54
2019-05-23T03:13:11.775Z,101346.38
2019-05-23T03:15:48.232Z,101349.66
2019-05-23T03:18:24.671Z,101347.91
2019-05-23T03:21:01.369Z,101343.94
2019-05-23T03:23:36.507Z,101351.67
2019-05-23T03:26:34.957Z,101350.82
2019-05-23T03:29:11.457Z,101354.91
2019-05-23T03:31:52.373Z,101359.68
2019-05-23T03:34:29.298Z,101356.59
2019-05-23T03:37:06.362Z,101352.17
2019-05-23T03:39:41.787Z,101352.78
2019-05-23T03:42:17.119Z,101355.66
2019-05-23T03:44:53.897Z,101367.97
2019-05-23T03:47:30.868Z,101365.41
2019-05-23T03:50:07.522Z,101367.36
2019-05-23T03:52:44.887Z,101367.42
2019-05-23T03:55:21.890Z,101368.98
2019-05-23T03:57:58.006Z,101367.30
2019-05-23T04:00:37.420Z,101364.33
2019-05-23T04:03:14.975Z,101373.95
2019-05-23T04:05:51.445Z,101376.70
2019-05-23T04:08:29.123Z,101379.05
2019-05-23T04:11:04.208Z,101382.41
2019-05-23T04:13:39.738Z,101387.09
2019-05-23T04:16:15.162Z,101383.13
2019-05-23T04:18:51.643Z,101386.92
2019-05-23T04:21:28.218Z,101392.51
2019-05-23T04:24:03.835Z,101388.39
2019-05-23T04:26:40.353Z,101382.67
2019-05-23T04:29:16.694Z,101385.53
2019-05-23T04:32:06.903Z,101387.97
2019-05-23T04:34:29.939Z,101389.47
2019-05-23T04:37:05.994Z,101398.08
2019-05-23T04:39:42.499Z,101397.34
2019-05-23T04:42:20.183Z,101392.81
2019-05-23T04:44:55.587Z,101401.27
2019-05-23T04:47:31.467Z,101405.30
2019-05-23T04:50:08.876Z,101409.87
2019-05-23T04:52:45.384Z,101408.08
2019-05-23T04:55:24.810Z,101416.48
2019-05-23T04:58:04.153Z,101416.88
2019-05-23T05:00:38.137Z,101411.02
2019-05-23T05:03:17.825Z,101414.20
2019-05-23T05:05:51.358Z,101408.83
2019-05-23T05:08:26.403Z,101404.94
2019-05-23T05:11:01.731Z,101410.34
2019-05-23T05:13:37.547Z,101412.06
2019-05-23T05:16:15.968Z,101411.63
2019-05-23T05:18:55.253Z,101410.70
2019-05-23T05:21:32.604Z,101419.27
2019-05-23T05:24:07.924Z,101419.27
2019-05-23T05:26:44.166Z,101414.78
2019-05-23T05:29:22.120Z,101421.17
2019-05-23T05:31:57.546Z,101423.92
2019-05-23T05:34:32.663Z,101424.53
2019-05-23T05:37:07.987Z,101419.30
2019-05-23T05:39:43.914Z,101421.13
2019-05-23T05:42:20.415Z,101415.83
2019-05-23T05:44:59.337Z,101420.06
2019-05-23T05:47:35.827Z,101427.80
2019-05-23T05:50:13.079Z,101426.03
2019-05-23T05:52:49.646Z,101427.02
2019-05-23T05:55:24.947Z,101431.48
2019-05-23T05:58:02.052Z,101428.92
2019-05-23T06:00:39.857Z,101431.58
2019-05-23T06:03:14.993Z,101429.66
2019-05-23T06:06:09.487Z,101424.79
2019-05-23T06:08:46.512Z,101422.18
2019-05-23T06:11:21.725Z,101430.91
2019-05-23T06:13:58.196Z,101423.16
2019-05-23T06:16:36.182Z,101426.63
2019-05-23T06:19:11.726Z,101432.70
2019-05-23T06:21:48.577Z,101427.95
2019-05-23T06:24:42.998Z,101428.97
2019-05-23T06:27:09.859Z,101437.56
2019-05-23T06:29:50.512Z,101434.38
2019-05-23T06:32:38.080Z,101435.16
2019-05-23T06:35:16.087Z,101438.42
2019-05-23T06:37:55.812Z,101437.20
2019-05-23T06:40:33.848Z,101433.70
2019-05-23T06:43:12.797Z,101436.95
2019-05-23T06:45:49.324Z,101442.61
2019-05-23T06:48:45.545Z,101437.39
2019-05-23T06:51:23.157Z,101435.39
2019-05-23T06:54:12.641Z,101444.81
2019-05-23T06:56:55.541Z,101437.28
2019-05-23T06:59:45.015Z,101437.02
2019-05-23T07:02:20.559Z,101446.55
2019-05-23T07:05:00.372Z,101442.63
2019-05-23T07:07:37.804Z,101445.92
2019-05-23T07:10:13.407Z,101448.10
2019-05-23T07:12:48.772Z,101443.37
2019-05-23T07:15:26.551Z,101443.84
2019-05-23T07:18:10.249Z,101442.92
2019-05-23T07:20:46.975Z,101447.50
2019-05-23T07:23:41.062Z,101453.99
2019-05-23T07:26:35.790Z,101451.88
2019-05-23T07:29:14.320Z,101458.19
2019-05-23T07:32:00.987Z,101451.86
2019-05-23T07:35:08.277Z,101450.13
2019-05-23T07:38:05.529Z,101449.48
2019-05-23T07:40:46.643Z,101449.53
2019-05-23T07:43:30.441Z,101437.37
2019-05-23T07:49:08.794Z,101435.16
2019-05-23T07:51:46.370Z,101430.11
2019-05-23T07:54:26.247Z,101432.57
2019-05-23T07:57:09.017Z,101437.74
2019-05-23T07:59:52.775Z,101436.11
2019-05-23T08:09:11.274Z,101421.17
2019-05-23T08:14:59.008Z,101431.67
2019-05-23T08:18:07.966Z,101429.23
2019-05-23T08:36:35.828Z,101435.17
2019-05-23T08:39:16.707Z,101441.52
2019-05-23T08:42:19.360Z,101426.99
2019-05-23T08:45:20.746Z,101432.17
2019-05-23T08:48:15.736Z,101426.73
2019-05-23T09:10:52.014Z,101421.78
2019-05-23T09:27:15.324Z,101416.87
2019-05-23T09:29:52.475Z,101426.55
2019-05-23T09:35:39.647Z,101429.46
2019-05-23T09:38:26.554Z,101419.05
2019-05-23T09:48:06.517Z,101420.00
2019-05-23T09:50:41.881Z,101412.50
2019-05-23T09:59:47.155Z,101411.79
2019-05-23T10:22:23.523Z,101406.99
2019-05-23T10:25:38.857Z,101408.06
2019-05-23T10:28:15.669Z,101402.79
2019-05-23T10:53:33.095Z,101390.42
2019-05-23T10:56:26.867Z,101386.70
2019-05-23T11:02:45.456Z,101384.36
2019-05-23T11:15:07.830Z,101381.88
2019-05-23T11:17:53.974Z,101389.34
2019-05-23T11:20:36.197Z,101384.80
2019-05-23T11:23:14.696Z,101388.20
2019-05-23T11:25:54.118Z,101388.12
2019-05-23T11:31:37.314Z,101388.86
2019-05-23T11:34:19.955Z,101362.17
2019-05-23T11:37:01.043Z,101362.17
2019-05-23T11:39:41.933Z,101380.02
2019-05-23T11:42:18.506Z,101368.42
2019-05-23T11:45:01.347Z,101379.25
2019-05-23T11:47:36.633Z,101377.08
2019-05-23T11:50:15.049Z,101369.31
2019-05-23T11:52:56.310Z,101370.50
2019-05-23T11:55:32.787Z,101368.73
2019-05-23T11:58:10.160Z,101367.11
2019-05-23T12:00:55.642Z,101365.34
2019-05-23T12:03:31.568Z,101364.18
2019-05-23T12:06:20.390Z,101361.76
2019-05-23T12:09:03.078Z,101361.25
2019-05-23T12:11:42.717Z,101350.03
2019-05-23T12:14:22.348Z,101351.41
2019-05-23T12:17:02.720Z,101358.11
2019-05-23T12:19:39.094Z,101354.92
2019-05-23T12:22:21.226Z,101354.92
2019-05-23T12:25:20.791Z,101358.84
2019-05-23T12:27:55.330Z,101348.91
2019-05-23T12:30:32.296Z,101345.27
2019-05-23T12:33:10.371Z,101346.41
2019-05-23T12:38:50.456Z,101347.30
2019-05-23T12:41:29.879Z,101341.73
2019-05-23T12:44:11.597Z,101339.86
2019-05-23T12:46:49.668Z,101336.60
2019-05-23T12:49:35.025Z,101325.77
2019-05-23T12:52:20.905Z,101329.00
2019-05-23T12:55:13.463Z,101330.17
2019-05-23T12:57:51.659Z,101326.19
2019-05-23T13:00:42.115Z,101332.76
2019-05-23T13:03:28.957Z,101317.80
2019-05-23T13:18:27.710Z,101310.91
2019-05-23T13:34:02.994Z,101307.53
2019-05-23T13:36:56.472Z,101300.28
2019-05-23T13:39:32.045Z,101302.89
2019-05-23T13:48:48.994Z,101292.36
2019-05-23T13:51:49.249Z,101288.53
2019-05-23T14:10:32.167Z,101274.70
2019-05-23T14:13:10.744Z,101272.34
2019-05-23T14:56:21.868Z,101254.45
2019-05-23T15:15:33.549Z,101260.09
2019-05-23T15:18:24.048Z,101252.86
2019-05-23T15:27:32.833Z,101244.65
2019-05-23T15:30:29.829Z,101248.38
2019-05-23T15:33:18.217Z,101238.02
2019-05-23T15:39:09.924Z,101246.23
2019-05-23T15:42:05.814Z,101248.75
2019-05-23T15:55:00.211Z,101243.14
2019-05-23T15:57:51.987Z,101249.41
2019-05-23T16:00:38.795Z,101246.25
2019-05-23T16:04:07.835Z,101234.98
2019-05-23T16:06:47.075Z,101238.89
2019-05-23T16:09:50.277Z,101238.77
2019-05-23T16:12:30.589Z,101236.57
2019-05-23T16:15:18.468Z,101238.55
2019-05-23T16:18:23.418Z,101239.12
2019-05-23T16:24:21.131Z,101240.91
2019-05-23T16:27:15.444Z,101241.72
2019-05-23T16:29:56.661Z,101250.03
2019-05-23T16:32:37.257Z,101242.99
2019-05-23T16:35:12.967Z,101242.56
2019-05-23T16:38:04.591Z,101251.23
2019-05-23T16:41:02.062Z,101247.28
2019-05-23T16:43:35.091Z,101243.50
2019-05-23T16:46:17.185Z,101243.84
2019-05-23T16:48:55.181Z,101240.75
2019-05-23T16:51:35.831Z,101240.92
2019-05-23T16:54:19.022Z,101242.05
2019-05-23T16:57:05.945Z,101239.90
2019-05-23T16:59:52.291Z,101241.33
2019-05-23T17:02:39.726Z,101243.25
2019-05-23T17:05:34.053Z,101238.21
2019-05-23T17:08:23.637Z,101244.48
2019-05-23T17:11:04.437Z,101243.02
2019-05-23T17:13:50.890Z,101242.05
2019-05-23T17:17:05.158Z,101239.78
2019-05-23T17:19:40.094Z,101241.94
2019-05-23T17:22:40.537Z,101247.16
2019-05-23T17:25:43.473Z,101244.85
2019-05-23T17:28:24.574Z,101246.31
2019-05-23T17:31:03.732Z,101243.95
2019-05-23T17:33:39.470Z,101247.72
2019-05-23T17:36:14.584Z,101244.91
2019-05-23T17:38:56.769Z,101244.14
2019-05-23T17:41:35.150Z,101243.80
2019-05-23T17:44:12.461Z,101246.27
2019-05-23T17:46:50.928Z,101237.86
2019-05-23T17:49:28.997Z,101232.52
2019-05-23T17:52:14.925Z,101243.17
2019-05-23T17:57:52.255Z,101248.86
2019-05-23T18:00:44.596Z,101237.20
2019-05-23T18:03:26.911Z,101240.67
2019-05-23T18:06:05.066Z,101245.28
2019-05-23T18:08:43.093Z,101248.23
2019-05-23T18:11:18.657Z,101243.22
2019-05-23T18:13:54.876Z,101251.73
2019-05-23T18:16:31.936Z,101250.75
2019-05-23T18:19:15.128Z,101251.59
2019-05-23T18:22:04.830Z,101250.31
2019-05-23T18:24:43.592Z,101243.84
2019-05-23T18:27:24.636Z,101252.27
2019-05-23T18:30:06.746Z,101253.12
2019-05-23T18:32:43.723Z,101254.19
2019-05-23T18:35:20.711Z,101257.12
2019-05-23T18:37:55.724Z,101261.78
2019-05-23T18:40:33.751Z,101259.38
2019-05-23T18:43:15.964Z,101260.40
2019-05-23T18:45:56.776Z,101266.20
2019-05-23T18:48:41.545Z,101258.36
2019-05-23T18:51:23.999Z,101261.17
2019-05-23T18:54:07.753Z,101270.91
2019-05-23T18:56:45.044Z,101265.18
2019-05-23T18:59:22.987Z,101268.48
2019-05-23T19:02:04.399Z,101275.81
2019-05-23T19:04:51.883Z,101267.42
2019-05-23T19:07:39.996Z,101273.84
2019-05-23T19:10:16.899Z,101279.73
2019-05-23T19:12:58.526Z,101284.27
2019-05-23T19:15:57.343Z,101277.13
2019-05-23T19:18:46.715Z,101281.20
2019-05-23T19:21:31.633Z,101272.30
2019-05-23T19:24:22.301Z,101287.03
2019-05-23T19:27:04.562Z,101278.67
2019-05-23T19:29:46.010Z,101284.73
2019-05-23T19:32:46.802Z,101285.00
2019-05-23T19:35:27.566Z,101288.67
2019-05-23T19:38:18.006Z,101290.30
2019-05-23T19:40:59.134Z,101290.47
2019-05-23T19:43:39.135Z,101292.64
2019-05-23T19:49:26.993Z,101292.16
2019-05-23T19:52:04.247Z,101295.38
2019-05-23T19:54:44.081Z,101292.50
2019-05-23T19:57:24.226Z,101290.45
2019-05-23T20:00:17.751Z,101288.36
2019-05-23T20:06:26.657Z,101284.55
2019-05-23T20:09:09.331Z,101289.83
2019-05-23T20:11:54.339Z,101283.43
2019-05-23T20:14:35.409Z,101282.40
2019-05-23T20:17:20.460Z,101285.72
2019-05-23T20:19:59.071Z,101276.73
2019-05-23T20:22:41.199Z,101285.92
2019-05-23T20:25:18.627Z,101277.87
2019-05-23T20:27:55.268Z,101281.88
2019-05-23T20:30:45.531Z,101279.08
2019-05-23T20:33:26.498Z,101286.45
2019-05-23T20:36:11.919Z,101277.37
2019-05-23T20:38:46.143Z,101286.52
2019-05-23T20:41:24.562Z,101285.24
2019-05-23T20:43:59.993Z,101293.09
2019-05-23T20:46:36.096Z,101284.89
2019-05-23T20:49:14.162Z,101287.58
2019-05-23T20:51:53.392Z,101282.09
2019-05-23T20:54:33.365Z,101285.27
2019-05-23T20:57:08.410Z,101285.38
2019-05-23T20:59:46.358Z,101279.29
2019-05-23T21:02:20.923Z,101282.27
2019-05-23T21:04:56.352Z,101271.83
2019-05-23T21:07:34.411Z,101273.66
2019-05-23T21:10:14.171Z,101268.41
2019-05-23T21:12:49.719Z,101263.28
2019-05-23T21:15:25.395Z,101267.70
2019-05-23T21:18:02.502Z,101272.27
2019-05-23T21:20:38.661Z,101266.26
2019-05-23T21:23:13.897Z,101266.26
2019-05-23T21:25:54.094Z,101271.88
2019-05-23T21:28:32.725Z,101266.94
2019-05-23T21:31:29.607Z,101269.47
2019-05-23T21:34:25.125Z,101264.14
2019-05-23T21:37:01.165Z,101265.22
2019-05-23T21:39:42.917Z,101269.58
2019-05-23T21:42:20.604Z,101271.73
2019-05-23T21:45:14.198Z,101270.73
2019-05-23T21:47:54.605Z,101277.30
2019-05-23T21:50:43.210Z,101274.47
2019-05-23T21:53:21.172Z,101275.73
2019-05-23T21:55:57.682Z,101266.55
2019-05-23T21:58:32.864Z,101268.17
2019-05-23T22:01:18.290Z,101266.17
2019-05-23T22:04:07.800Z,101266.77
2019-05-23T22:06:47.274Z,101265.28
2019-05-23T22:09:30.291Z,101265.50
2019-05-23T22:12:31.688Z,101269.35
2019-05-23T22:18:40.626Z,101265.38
2019-05-23T22:21:21.513Z,101265.77
2019-05-23T22:24:04.378Z,101266.32
2019-05-23T22:26:55.870Z,101257.73
2019-05-23T22:29:45.886Z,101257.44
2019-05-23T22:32:28.166Z,101258.41
2019-05-23T22:35:09.311Z,101257.23
2019-05-23T22:37:53.728Z,101253.55
2019-05-23T22:40:39.049Z,101250.34
2019-05-23T22:43:31.465Z,101250.34
2019-05-23T22:46:14.911Z,101244.51
2019-05-23T22:48:55.598Z,101244.20
2019-05-23T22:51:46.285Z,101258.39
2019-05-23T22:54:49.670Z,101254.20
2019-05-23T22:57:40.808Z,101243.53
2019-05-23T23:00:41.549Z,101236.94
2019-05-23T23:03:33.283Z,101244.59
2019-05-23T23:06:16.381Z,101243.18
2019-05-23T23:09:02.599Z,101237.52
2019-05-23T23:11:48.784Z,101233.31
2019-05-23T23:14:28.721Z,101236.63
2019-05-23T23:17:07.130Z,101237.76
2019-05-23T23:19:56.964Z,101238.59
2019-05-23T23:22:34.288Z,101233.10
2019-05-23T23:25:12.987Z,101236.19
2019-05-23T23:27:57.807Z,101235.81
2019-05-23T23:30:54.847Z,101226.63
2019-05-23T23:33:50.632Z,101230.87
2019-05-23T23:36:32.286Z,101226.73
2019-05-23T23:39:21.113Z,101229.52
2019-05-23T23:42:02.262Z,101225.66
2019-05-23T23:44:47.380Z,101230.47
2019-05-23T23:47:46.276Z,101225.42
2019-05-23T23:50:59.562Z,101223.14
2019-05-23T23:53:58.009Z,101229.95
2019-05-23T23:56:53.294Z,101222.30
2019-05-23T23:59:33.222Z,101223.30
